PWSweather.com
Personal Weather Stations
Station Observations
AKANCHO109
Seawind Drive, Anchorage, AK 99516

Seawind DriveAnchorage, AK 99516

Lat: 61.0988, Lon: -149.8265

Elevation: 280

Station Type: Davis Vantage Pro

http://www.willowweather.com/anchorage/wx.html

Latest ConditionsUpdated 12:20:01 PM AKST Thursday, Sep 21, 2017
Currently Today's Max Today's Min Today's Average
Temperature 44.3°F6.8°C 44.5°F6.9°C 42.5°F5.8°C 43.4°F6.3°C
Dew Point 43.0°F6.1°C 43.4°F6.3°C 40.6°F4.8°C 42.0°F5.6°C
Winds 1.2 mph NE1.9 kmh NE 2.3 mph NNE3.7 kmh NNE - 0.4 mph 0.6 kmh
Wind Gusts 2.3 mph3.7 kmh 4.6 mph7.4 kmh - -
Humidity 95% 96% 93% 95%
Pressure 29.75 in1007.5 mb 29.97 in1014.9 mb 29.75 in1007.5 mb -
Precipitation - 0.01 in0.3 mm - -
Hour Temp Dew Point Humidity Winds Wind Gusts Pressure Precip Precip Rate Daily Precip Total
12:20 PM 44.3°F6.8°C 43.0°F6.1°C 95% 1.2 mph NE1.9 kmh NE 2.3 mph3.7 kmh 29.75 in1007.5 mb - 0.00 in0.0 mm 0.01 in0.3 mm
12:15 PM 44.3°F6.8°C 43.0°F6.1°C 95% Calm Calm 3.5 mph5.6 kmh 29.75 in1007.5 mb - 0.00 in0.0 mm 0.01 in0.3 mm
12:10 PM 44.3°F6.8°C 43.0°F6.1°C 95% 1.2 mph NE1.9 kmh NE 3.5 mph5.6 kmh 29.75 in1007.5 mb - 0.00 in0.0 mm 0.01 in0.3 mm
11:55 AM 44.5°F6.9°C 43.2°F6.2°C 95% Calm Calm 1.2 mph1.9 kmh 29.75 in1007.5 mb - 0.00 in0.0 mm 0.01 in0.3 mm
11:50 AM 44.5°F6.9°C 43.2°F6.2°C 95% 1.2 mph N1.9 kmh N 4.6 mph7.4 kmh 29.75 in1007.5 mb - 0.00 in0.0 mm 0.01 in0.3 mm
11:45 AM 44.5°F6.9°C 43.2°F6.2°C 95% Calm Calm 2.3 mph3.7 kmh 29.75 in1007.5 mb - 0.00 in0.0 mm 0.01 in0.3 mm
11:40 AM 44.4°F6.9°C 43.1°F6.2°C 95% 1.2 mph N1.9 kmh N 2.3 mph3.7 kmh 29.75 in1007.5 mb - 0.00 in0.0 mm 0.01 in0.3 mm
11:35 AM 44.4°F6.9°C 43.1°F6.2°C 95% 1.2 mph NNE1.9 kmh NNE 3.5 mph5.6 kmh 29.75 in1007.5 mb - 0.00 in0.0 mm 0.01 in0.3 mm
11:25 AM 44.5°F6.9°C 43.1°F6.2°C 95% 1.2 mph NW1.9 kmh NW 3.5 mph5.6 kmh 29.75 in1007.5 mb - 0.00 in0.0 mm 0.01 in0.3 mm
11:15 AM 44.4°F6.9°C 43.1°F6.2°C 95% Calm Calm 1.2 mph1.9 kmh 29.75 in1007.5 mb - 0.00 in0.0 mm 0.01 in0.3 mm
11:10 AM 44.4°F6.9°C 43.1°F6.2°C 95% 1.2 mph NNE1.9 kmh NNE 3.5 mph5.6 kmh 29.75 in1007.5 mb - 0.00 in0.0 mm 0.01 in0.3 mm
11:00 AM 44.4°F6.9°C 43.1°F6.2°C 95% 1.2 mph NE1.9 kmh NE 2.3 mph3.7 kmh 29.75 in1007.5 mb - 0.00 in0.0 mm 0.01 in0.3 mm
10:55 AM 44.4°F6.9°C 43.1°F6.2°C 95% 1.2 mph NE1.9 kmh NE 2.3 mph3.7 kmh 29.75 in1007.5 mb - 0.00 in0.0 mm 0.01 in0.3 mm
10:50 AM 44.5°F6.9°C 43.4°F6.3°C 96% 2.3 mph N3.7 kmh N 3.5 mph5.6 kmh 29.75 in1007.5 mb - 0.00 in0.0 mm 0.01 in0.3 mm
10:45 AM 44.4°F6.9°C 43.3°F6.3°C 96% Calm Calm -- 29.75 in1007.5 mb - 0.00 in0.0 mm 0.01 in0.3 mm
10:40 AM 44.2°F6.8°C 43.1°F6.2°C 96% 1.2 mph N1.9 kmh N 2.3 mph3.7 kmh 29.75 in1007.5 mb - 0.00 in0.0 mm 0.01 in0.3 mm
10:35 AM 44.2°F6.8°C 43.1°F6.2°C 96% 1.2 mph NNE1.9 kmh NNE 3.5 mph5.6 kmh 29.75 in1007.5 mb - 0.00 in0.0 mm 0.01 in0.3 mm
10:25 AM 44.1°F6.7°C 43.0°F6.1°C 96% 1.2 mph 1.9 kmh 2.3 mph3.7 kmh 29.75 in1007.5 mb - 0.00 in0.0 mm 0.01 in0.3 mm
10:20 AM 44.1°F6.7°C 43.0°F6.1°C 96% 1.2 mph NNW1.9 kmh NNW 1.2 mph1.9 kmh 29.76 in1007.8 mb - 0.00 in0.0 mm 0.01 in0.3 mm
10:15 AM 44.1°F6.7°C 42.7°F5.9°C 95% Calm Calm -- 29.76 in1007.8 mb - 0.00 in0.0 mm 0.01 in0.3 mm
10:10 AM 44.1°F6.7°C 42.8°F6.0°C 95% 1.2 mph NNE1.9 kmh NNE 2.3 mph3.7 kmh 29.76 in1007.8 mb - 0.00 in0.0 mm 0.01 in0.3 mm
09:55 AM 44.0°F6.7°C 42.9°F6.1°C 96% 1.2 mph N1.9 kmh N 2.3 mph3.7 kmh 29.76 in1007.8 mb - 0.00 in0.0 mm 0.01 in0.3 mm
09:50 AM 43.9°F6.6°C 42.8°F6.0°C 96% 1.2 mph NNW1.9 kmh NNW 1.2 mph1.9 kmh 29.77 in1008.1 mb - 0.00 in0.0 mm 0.01 in0.3 mm
09:45 AM 43.8°F6.6°C 42.7°F5.9°C 96% 1.2 mph N1.9 kmh N 3.5 mph5.6 kmh 29.76 in1007.8 mb - 0.00 in0.0 mm 0.01 in0.3 mm
09:40 AM 43.8°F6.6°C 42.7°F5.9°C 96% 1.2 mph N1.9 kmh N 1.2 mph1.9 kmh 29.77 in1008.1 mb - 0.00 in0.0 mm 0.01 in0.3 mm
09:35 AM 43.7°F6.5°C 42.6°F5.9°C 96% Calm Calm 2.3 mph3.7 kmh 29.77 in1008.1 mb - 0.00 in0.0 mm 0.01 in0.3 mm
09:30 AM 43.6°F6.4°C 42.5°F5.8°C 96% 1.2 mph N1.9 kmh N 2.3 mph3.7 kmh 29.78 in1008.5 mb - 0.00 in0.0 mm 0.01 in0.3 mm
09:25 AM 43.6°F6.4°C 42.5°F5.8°C 96% 1.2 mph NW1.9 kmh NW 3.5 mph5.6 kmh 29.78 in1008.5 mb - 0.00 in0.0 mm 0.01 in0.3 mm
09:20 AM 43.6°F6.4°C 42.5°F5.8°C 96% 1.2 mph NE1.9 kmh NE 2.3 mph3.7 kmh 29.78 in1008.5 mb - 0.00 in0.0 mm 0.01 in0.3 mm
09:15 AM 43.6°F6.4°C 42.5°F5.8°C 96% 2.3 mph N3.7 kmh N 3.5 mph5.6 kmh 29.79 in1008.8 mb - 0.00 in0.0 mm 0.01 in0.3 mm
09:10 AM 43.6°F6.4°C 42.5°F5.8°C 96% 1.2 mph NNW1.9 kmh NNW 3.5 mph5.6 kmh 29.79 in1008.8 mb - 0.00 in0.0 mm 0.01 in0.3 mm
08:55 AM 43.4°F6.3°C 42.4°F5.8°C 96% Calm Calm 1.2 mph1.9 kmh 29.79 in1008.8 mb - 0.00 in0.0 mm 0.01 in0.3 mm
08:50 AM 43.4°F6.3°C 42.3°F5.7°C 96% Calm Calm 2.3 mph3.7 kmh 29.80 in1009.1 mb - 0.00 in0.0 mm 0.01 in0.3 mm
08:45 AM 43.3°F6.3°C 42.0°F5.6°C 95% Calm Calm 1.2 mph1.9 kmh 29.80 in1009.1 mb - 0.00 in0.0 mm 0.01 in0.3 mm
08:40 AM 43.3°F6.3°C 42.0°F5.6°C 95% 1.2 mph NE1.9 kmh NE 2.3 mph3.7 kmh 29.80 in1009.1 mb - 0.00 in0.0 mm 0.01 in0.3 mm
08:35 AM 43.2°F6.2°C 42.2°F5.7°C 96% 2.3 mph NNE3.7 kmh NNE 3.5 mph5.6 kmh 29.80 in1009.1 mb - 0.00 in0.0 mm 0.01 in0.3 mm
08:30 AM 43.2°F6.2°C 42.1°F5.6°C 96% Calm Calm 1.2 mph1.9 kmh 29.81 in1009.5 mb - 0.00 in0.0 mm 0.01 in0.3 mm
08:25 AM 43.2°F6.2°C 41.9°F5.5°C 95% Calm Calm 2.3 mph3.7 kmh 29.81 in1009.5 mb - 0.00 in0.0 mm 0.01 in0.3 mm
08:20 AM 43.2°F6.2°C 41.9°F5.5°C 95% Calm Calm 1.2 mph1.9 kmh 29.82 in1009.8 mb - 0.00 in0.0 mm 0.01 in0.3 mm
08:15 AM 43.2°F6.2°C 41.9°F5.5°C 95% Calm Calm 1.2 mph1.9 kmh 29.82 in1009.8 mb - 0.00 in0.0 mm 0.01 in0.3 mm
08:10 AM 43.2°F6.2°C 41.9°F5.5°C 95% Calm Calm 2.3 mph3.7 kmh 29.82 in1009.8 mb - 0.00 in0.0 mm 0.01 in0.3 mm
08:00 AM 43.1°F6.2°C 41.8°F5.4°C 95% Calm Calm 1.2 mph1.9 kmh 29.81 in1009.5 mb - 0.00 in0.0 mm 0.01 in0.3 mm
07:55 AM 43.1°F6.2°C 41.8°F5.4°C 95% Calm Calm 2.3 mph3.7 kmh 29.82 in1009.8 mb - 0.00 in0.0 mm 0.01 in0.3 mm
07:50 AM 43.1°F6.2°C 41.8°F5.4°C 95% Calm Calm -- 29.82 in1009.8 mb - 0.01 in0.3 mm 0.01 in0.3 mm
07:45 AM 43.1°F6.2°C 41.8°F5.4°C 95% Calm Calm -- 29.82 in1009.8 mb - 0.00 in0.0 mm 0.00 in0.0 mm
07:40 AM 43.1°F6.2°C 41.7°F5.4°C 95% Calm Calm 1.2 mph1.9 kmh 29.82 in1009.8 mb - 0.00 in0.0 mm 0.00 in0.0 mm
07:35 AM 43.1°F6.2°C 41.8°F5.4°C 95% Calm Calm 3.5 mph5.6 kmh 29.82 in1009.8 mb - 0.00 in0.0 mm 0.00 in0.0 mm
07:30 AM 43.1°F6.2°C 41.7°F5.4°C 95% Calm Calm 2.3 mph3.7 kmh 29.83 in1010.2 mb - 0.00 in0.0 mm 0.00 in0.0 mm
07:25 AM 43.1°F6.2°C 41.8°F5.4°C 95% 1.2 mph NE1.9 kmh NE 1.2 mph1.9 kmh 29.82 in1009.8 mb - 0.00 in0.0 mm 0.00 in0.0 mm
07:20 AM 43.1°F6.2°C 41.8°F5.4°C 95% Calm Calm 2.3 mph3.7 kmh 29.83 in1010.2 mb - 0.00 in0.0 mm 0.00 in0.0 mm
07:15 AM 43.1°F6.2°C 41.8°F5.4°C 95% Calm Calm 3.5 mph5.6 kmh 29.83 in1010.2 mb - 0.00 in0.0 mm 0.00 in0.0 mm
07:10 AM 43.1°F6.2°C 41.8°F5.4°C 95% Calm Calm 1.2 mph1.9 kmh 29.84 in1010.5 mb - 0.00 in0.0 mm 0.00 in0.0 mm
07:00 AM 43.1°F6.2°C 41.8°F5.4°C 95% Calm Calm 1.2 mph1.9 kmh 29.84 in1010.5 mb - 0.00 in0.0 mm 0.00 in0.0 mm
06:50 AM 43.2°F6.2°C 41.9°F5.5°C 95% 1.2 mph NNE1.9 kmh NNE 3.5 mph5.6 kmh 29.84 in1010.5 mb - 0.00 in0.0 mm 0.00 in0.0 mm
06:45 AM 43.2°F6.2°C 41.9°F5.5°C 95% Calm Calm 2.3 mph3.7 kmh 29.84 in1010.5 mb - 0.00 in0.0 mm 0.00 in0.0 mm
06:35 AM 43.2°F6.2°C 41.9°F5.5°C 95% 1.2 mph NNE1.9 kmh NNE 2.3 mph3.7 kmh 29.84 in1010.5 mb - 0.00 in0.0 mm 0.00 in0.0 mm
06:32 AM 43.2°F6.2°C 41.9°F5.5°C 95% Calm Calm 2.3 mph3.7 kmh 29.85 in1010.8 mb - 0.00 in0.0 mm 0.00 in0.0 mm
06:30 AM 43.2°F6.2°C 41.9°F5.5°C 95% 1.2 mph NE1.9 kmh NE 1.2 mph1.9 kmh 29.85 in1010.8 mb - 0.00 in0.0 mm 0.00 in0.0 mm
06:25 AM 43.2°F6.2°C 41.9°F5.5°C 95% Calm Calm 1.2 mph1.9 kmh 29.85 in1010.8 mb - 0.00 in0.0 mm 0.00 in0.0 mm
06:15 AM 43.3°F6.3°C 42.0°F5.6°C 95% 1.2 mph N1.9 kmh N 3.5 mph5.6 kmh 29.84 in1010.5 mb - 0.00 in0.0 mm 0.00 in0.0 mm
06:10 AM 43.3°F6.3°C 41.7°F5.4°C 94% Calm Calm 1.2 mph1.9 kmh 29.85 in1010.8 mb - 0.00 in0.0 mm 0.00 in0.0 mm
06:00 AM 43.3°F6.3°C 41.7°F5.4°C 94% 1.2 mph NE1.9 kmh NE 2.3 mph3.7 kmh 29.86 in1011.2 mb - 0.00 in0.0 mm 0.00 in0.0 mm
05:55 AM 43.4°F6.3°C 41.8°F5.4°C 94% Calm Calm 1.2 mph1.9 kmh 29.85 in1010.8 mb - 0.00 in0.0 mm 0.00 in0.0 mm
05:50 AM 43.3°F6.3°C 41.7°F5.4°C 94% Calm Calm 1.2 mph1.9 kmh 29.86 in1011.2 mb - 0.00 in0.0 mm 0.00 in0.0 mm
05:45 AM 43.3°F6.3°C 41.7°F5.4°C 94% Calm Calm 1.2 mph1.9 kmh 29.86 in1011.2 mb - 0.00 in0.0 mm 0.00 in0.0 mm
05:40 AM 43.3°F6.3°C 41.7°F5.4°C 94% 1.2 mph N1.9 kmh N 1.2 mph1.9 kmh 29.86 in1011.2 mb - 0.00 in0.0 mm 0.00 in0.0 mm
05:35 AM 43.2°F6.2°C 41.6°F5.3°C 94% Calm Calm 1.2 mph1.9 kmh 29.86 in1011.2 mb - 0.00 in0.0 mm 0.00 in0.0 mm
05:30 AM 43.2°F6.2°C 41.6°F5.3°C 94% Calm Calm 2.3 mph3.7 kmh 29.86 in1011.2 mb - 0.00 in0.0 mm 0.00 in0.0 mm
05:25 AM 43.2°F6.2°C 41.6°F5.3°C 94% Calm Calm -- 29.86 in1011.2 mb - 0.00 in0.0 mm 0.00 in0.0 mm
05:20 AM 43.2°F6.2°C 41.6°F5.3°C 94% Calm Calm 1.2 mph1.9 kmh 29.87 in1011.5 mb - 0.00 in0.0 mm 0.00 in0.0 mm
05:15 AM 43.2°F6.2°C 41.6°F5.3°C 94% Calm Calm 1.2 mph1.9 kmh 29.86 in1011.2 mb - 0.00 in0.0 mm 0.00 in0.0 mm
05:10 AM 43.2°F6.2°C 41.6°F5.3°C 94% Calm Calm 2.3 mph3.7 kmh 29.87 in1011.5 mb - 0.00 in0.0 mm 0.00 in0.0 mm
05:00 AM 43.3°F6.3°C 41.7°F5.4°C 94% Calm Calm 1.2 mph1.9 kmh 29.87 in1011.5 mb - 0.00 in0.0 mm 0.00 in0.0 mm
04:55 AM 43.3°F6.3°C 41.7°F5.4°C 94% Calm Calm 2.3 mph3.7 kmh 29.87 in1011.5 mb - 0.00 in0.0 mm 0.00 in0.0 mm
04:50 AM 43.3°F6.3°C 41.7°F5.4°C 94% Calm Calm 2.3 mph3.7 kmh 29.87 in1011.5 mb - 0.00 in0.0 mm 0.00 in0.0 mm
04:45 AM 43.3°F6.3°C 41.7°F5.4°C 94% Calm Calm 2.3 mph3.7 kmh 29.88 in1011.9 mb - 0.00 in0.0 mm 0.00 in0.0 mm
04:40 AM 43.3°F6.3°C 41.7°F5.4°C 94% Calm Calm 2.3 mph3.7 kmh 29.88 in1011.9 mb - 0.00 in0.0 mm 0.00 in0.0 mm
04:35 AM 43.3°F6.3°C 41.7°F5.4°C 94% Calm Calm 1.2 mph1.9 kmh 29.89 in1012.2 mb - 0.00 in0.0 mm 0.00 in0.0 mm
04:30 AM 43.3°F6.3°C 41.7°F5.4°C 94% Calm Calm 2.3 mph3.7 kmh 29.89 in1012.2 mb - 0.00 in0.0 mm 0.00 in0.0 mm
04:25 AM 43.3°F6.3°C 41.7°F5.4°C 94% Calm Calm -- 29.89 in1012.2 mb - 0.00 in0.0 mm 0.00 in0.0 mm
04:20 AM 43.3°F6.3°C 41.7°F5.4°C 94% Calm Calm -- 29.89 in1012.2 mb - 0.00 in0.0 mm 0.00 in0.0 mm
04:15 AM 43.3°F6.3°C 41.7°F5.4°C 94% Calm Calm -- 29.89 in1012.2 mb - 0.00 in0.0 mm 0.00 in0.0 mm
04:00 AM 43.4°F6.3°C 41.8°F5.4°C 94% Calm Calm -- 29.90 in1012.5 mb - 0.00 in0.0 mm 0.00 in0.0 mm
03:55 AM 43.4°F6.3°C 41.8°F5.4°C 94% Calm Calm -- 29.90 in1012.5 mb - 0.00 in0.0 mm 0.00 in0.0 mm
03:50 AM 43.4°F6.3°C 41.5°F5.3°C 93% Calm Calm 1.2 mph1.9 kmh 29.90 in1012.5 mb - 0.00 in0.0 mm 0.00 in0.0 mm
03:45 AM 43.4°F6.3°C 41.5°F5.3°C 93% Calm Calm -- 29.90 in1012.5 mb - 0.00 in0.0 mm 0.00 in0.0 mm
03:40 AM 43.5°F6.4°C 41.6°F5.3°C 93% Calm Calm 1.2 mph1.9 kmh 29.91 in1012.9 mb - 0.00 in0.0 mm 0.00 in0.0 mm
03:35 AM 43.5°F6.4°C 41.6°F5.3°C 93% 1.2 mph N1.9 kmh N 3.5 mph5.6 kmh 29.91 in1012.9 mb - 0.00 in0.0 mm 0.00 in0.0 mm
03:30 AM 43.5°F6.4°C 41.6°F5.3°C 93% Calm Calm -- 29.91 in1012.9 mb - 0.00 in0.0 mm 0.00 in0.0 mm
03:25 AM 43.5°F6.4°C 41.6°F5.3°C 93% Calm Calm -- 29.91 in1012.9 mb - 0.00 in0.0 mm 0.00 in0.0 mm
03:20 AM 43.6°F6.4°C 41.7°F5.4°C 93% Calm Calm -- 29.92 in1013.2 mb - 0.00 in0.0 mm 0.00 in0.0 mm
03:15 AM 43.6°F6.4°C 41.7°F5.4°C 93% 1.2 mph N1.9 kmh N 1.2 mph1.9 kmh 29.93 in1013.5 mb - 0.00 in0.0 mm 0.00 in0.0 mm
03:10 AM 43.6°F6.4°C 41.7°F5.4°C 93% Calm Calm 1.2 mph1.9 kmh 29.92 in1013.2 mb - 0.00 in0.0 mm 0.00 in0.0 mm
03:00 AM 43.6°F6.4°C 41.7°F5.4°C 93% Calm Calm 1.2 mph1.9 kmh 29.93 in1013.5 mb - 0.00 in0.0 mm 0.00 in0.0 mm
02:55 AM 43.5°F6.4°C 41.6°F5.3°C 93% Calm Calm -- 29.93 in1013.5 mb - 0.00 in0.0 mm 0.00 in0.0 mm
02:50 AM 43.5°F6.4°C 41.6°F5.3°C 93% Calm Calm 1.2 mph1.9 kmh 29.93 in1013.5 mb - 0.00 in0.0 mm 0.00 in0.0 mm
02:45 AM 43.4°F6.3°C 41.5°F5.3°C 93% Calm Calm -- 29.93 in1013.5 mb - 0.00 in0.0 mm 0.00 in0.0 mm
02:40 AM 43.4°F6.3°C 41.8°F5.4°C 94% Calm Calm 2.3 mph3.7 kmh 29.93 in1013.5 mb - 0.00 in0.0 mm 0.00 in0.0 mm
02:35 AM 43.4°F6.3°C 41.8°F5.4°C 94% Calm Calm -- 29.93 in1013.5 mb - 0.00 in0.0 mm 0.00 in0.0 mm
02:30 AM 43.4°F6.3°C 41.8°F5.4°C 94% Calm Calm -- 29.93 in1013.5 mb - 0.00 in0.0 mm 0.00 in0.0 mm
02:25 AM 43.3°F6.3°C 41.7°F5.4°C 94% Calm Calm -- 29.93 in1013.5 mb - 0.00 in0.0 mm 0.00 in0.0 mm
02:15 AM 43.3°F6.3°C 41.7°F5.4°C 94% Calm Calm -- 29.94 in1013.9 mb - 0.00 in0.0 mm 0.00 in0.0 mm
02:10 AM 43.2°F6.2°C 41.6°F5.3°C 94% Calm Calm -- 29.94 in1013.9 mb - 0.00 in0.0 mm 0.00 in0.0 mm
01:55 AM 43.2°F6.2°C 41.6°F5.3°C 94% Calm Calm -- 29.94 in1013.9 mb - 0.00 in0.0 mm 0.00 in0.0 mm
01:50 AM 43.1°F6.2°C 41.5°F5.3°C 94% Calm Calm -- 29.94 in1013.9 mb - 0.00 in0.0 mm 0.00 in0.0 mm
01:45 AM 43.1°F6.2°C 41.5°F5.3°C 94% Calm Calm -- 29.94 in1013.9 mb - 0.00 in0.0 mm 0.00 in0.0 mm
01:40 AM 43.0°F6.1°C 41.4°F5.2°C 94% Calm Calm -- 29.94 in1013.9 mb - 0.00 in0.0 mm 0.00 in0.0 mm
01:35 AM 43.0°F6.1°C 41.4°F5.2°C 94% Calm Calm -- 29.94 in1013.9 mb - 0.00 in0.0 mm 0.00 in0.0 mm
01:30 AM 42.9°F6.1°C 41.3°F5.2°C 94% Calm Calm 1.2 mph1.9 kmh 29.94 in1013.9 mb - 0.00 in0.0 mm 0.00 in0.0 mm
01:25 AM 42.9°F6.1°C 41.3°F5.2°C 94% Calm Calm -- 29.94 in1013.9 mb - 0.00 in0.0 mm 0.00 in0.0 mm
01:15 AM 42.9°F6.1°C 41.3°F5.2°C 94% Calm Calm -- 29.94 in1013.9 mb - 0.00 in0.0 mm 0.00 in0.0 mm
01:10 AM 42.8°F6.0°C 41.2°F5.1°C 94% Calm Calm -- 29.95 in1014.2 mb - 0.00 in0.0 mm 0.00 in0.0 mm
01:00 AM 42.8°F6.0°C 41.2°F5.1°C 94% Calm Calm -- 29.95 in1014.2 mb - 0.00 in0.0 mm 0.00 in0.0 mm
12:55 AM 42.8°F6.0°C 41.2°F5.1°C 94% Calm Calm -- 29.95 in1014.2 mb - 0.00 in0.0 mm 0.00 in0.0 mm
12:50 AM 42.8°F6.0°C 41.2°F5.1°C 94% Calm Calm -- 29.95 in1014.2 mb - 0.00 in0.0 mm 0.00 in0.0 mm
12:45 AM 42.8°F6.0°C 41.2°F5.1°C 94% Calm Calm -- 29.95 in1014.2 mb - 0.00 in0.0 mm 0.00 in0.0 mm
12:40 AM 42.8°F6.0°C 41.2°F5.1°C 94% Calm Calm -- 29.96 in1014.6 mb - 0.00 in0.0 mm 0.00 in0.0 mm
12:35 AM 42.7°F5.9°C 41.1°F5.1°C 94% Calm Calm -- 29.96 in1014.6 mb - 0.00 in0.0 mm 0.00 in0.0 mm
12:30 AM 42.6°F5.9°C 41.0°F5.0°C 94% Calm Calm -- 29.97 in1014.9 mb - 0.00 in0.0 mm 0.00 in0.0 mm
12:25 AM 42.5°F5.8°C 40.6°F4.8°C 93% Calm Calm -- 29.97 in1014.9 mb - 0.00 in0.0 mm 0.00 in0.0 mm
12:15 AM 42.5°F5.8°C 40.6°F4.8°C 93% Calm Calm -- 29.97 in1014.9 mb - 0.00 in0.0 mm 0.00 in0.0 mm
12:10 AM 42.5°F5.8°C 40.6°F4.8°C 93% Calm Calm -- 29.97 in1014.9 mb - 0.00 in0.0 mm 0.00 in0.0 mm
12:00 AM 42.6°F5.9°C 40.7°F4.8°C 93% Calm Calm -- 29.97 in1014.9 mb - 0.00 in0.0 mm 0.00 in0.0 mm